Terminal Aerodrome Forecast
Issued by NWS Omaha/Valley, NE

Home | Current Version | Previous Version | Text Only | Print | Product List | Glossary Off
Versions: 1 2 3 4 5 6 7 8 9 10 11 12 13 14 15 16

000
FTUS43 KOAX 031701 AAA
TAFOFK
TAF AMD
KOFK 031701Z 0317/0412 30012KT P6SM FEW050 SCT250
     FM032100 30011G18KT P6SM SCT050 SCT250
     FM040000 31009KT P6SM BKN250
     FM040600 34008KT P6SM FEW250=

USA.gov is the U.S. government's official web portal to all federal, state and local government web resources and services.